sensor_id;sensor_type;location;lat;lon;timestamp;P1;durP1;ratioP1;P2;durP2;ratioP2
72286;SDS011;60221;45.696;16.076;2024-01-16T00:00:23;14.90;;;6.50;;
72286;SDS011;60221;45.696;16.076;2024-01-16T00:02:50;44.30;;;16.30;;
72286;SDS011;60221;45.696;16.076;2024-01-16T00:05:17;75.80;;;23.20;;
72286;SDS011;60221;45.696;16.076;2024-01-16T00:07:44;40.20;;;13.90;;
72286;SDS011;60221;45.696;16.076;2024-01-16T00:10:11;66.50;;;21.80;;
72286;SDS011;60221;45.696;16.076;2024-01-16T00:12:37;53.80;;;20.00;;
72286;SDS011;60221;45.696;16.076;2024-01-16T00:15:06;40.40;;;16.10;;
72286;SDS011;60221;45.696;16.076;2024-01-16T00:17:33;31.30;;;12.20;;
72286;SDS011;60221;45.696;16.076;2024-01-16T00:20:01;21.60;;;9.30;;
72286;SDS011;60221;45.696;16.076;2024-01-16T00:22:28;18.10;;;7.50;;
72286;SDS011;60221;45.696;16.076;2024-01-16T00:24:54;18.10;;;7.70;;
72286;SDS011;60221;45.696;16.076;2024-01-16T00:27:21;16.90;;;8.40;;
72286;SDS011;60221;45.696;16.076;2024-01-16T00:29:48;16.10;;;8.20;;
72286;SDS011;60221;45.696;16.076;2024-01-16T00:32:15;23.30;;;10.50;;
72286;SDS011;60221;45.696;16.076;2024-01-16T00:34:43;19.10;;;8.90;;
72286;SDS011;60221;45.696;16.076;2024-01-16T00:37:09;13.20;;;5.70;;
72286;SDS011;60221;45.696;16.076;2024-01-16T00:39:36;16.50;;;6.70;;
72286;SDS011;60221;45.696;16.076;2024-01-16T00:42:03;12.80;;;5.30;;
72286;SDS011;60221;45.696;16.076;2024-01-16T00:44:30;14.30;;;5.00;;
72286;SDS011;60221;45.696;16.076;2024-01-16T00:46:57;14.00;;;5.30;;
72286;SDS011;60221;45.696;16.076;2024-01-16T00:49:24;12.80;;;4.60;;
72286;SDS011;60221;45.696;16.076;2024-01-16T00:51:51;10.10;;;4.10;;
72286;SDS011;60221;45.696;16.076;2024-01-16T00:54:17;11.60;;;4.40;;
72286;SDS011;60221;45.696;16.076;2024-01-16T00:56:44;17.20;;;5.50;;
72286;SDS011;60221;45.696;16.076;2024-01-16T00:59:11;14.60;;;5.00;;
72286;SDS011;60221;45.696;16.076;2024-01-16T01:01:38;10.80;;;3.90;;
72286;SDS011;60221;45.696;16.076;2024-01-16T01:04:05;10.40;;;4.10;;
72286;SDS011;60221;45.696;16.076;2024-01-16T01:06:32;10.50;;;4.20;;
72286;SDS011;60221;45.696;16.076;2024-01-16T01:08:59;10.30;;;3.60;;
72286;SDS011;60221;45.696;16.076;2024-01-16T01:11:26;8.20;;;3.20;;
72286;SDS011;60221;45.696;16.076;2024-01-16T01:13:52;10.10;;;3.90;;
72286;SDS011;60221;45.696;16.076;2024-01-16T01:16:20;9.40;;;3.60;;
72286;SDS011;60221;45.696;16.076;2024-01-16T01:18:47;13.40;;;5.70;;
72286;SDS011;60221;45.696;16.076;2024-01-16T01:21:13;11.80;;;4.40;;
72286;SDS011;60221;45.696;16.076;2024-01-16T01:23:40;11.90;;;4.40;;
72286;SDS011;60221;45.696;16.076;2024-01-16T01:26:07;10.10;;;4.40;;
72286;SDS011;60221;45.696;16.076;2024-01-16T01:28:34;9.70;;;3.60;;
72286;SDS011;60221;45.696;16.076;2024-01-16T01:31:01;11.50;;;4.60;;
72286;SDS011;60221;45.696;16.076;2024-01-16T01:33:28;11.50;;;4.30;;
72286;SDS011;60221;45.696;16.076;2024-01-16T01:35:55;12.80;;;4.20;;
72286;SDS011;60221;45.696;16.076;2024-01-16T01:38:22;12.60;;;4.20;;
72286;SDS011;60221;45.696;16.076;2024-01-16T01:40:48;11.00;;;4.00;;
72286;SDS011;60221;45.696;16.076;2024-01-16T01:43:22;11.50;;;4.00;;
72286;SDS011;60221;45.696;16.076;2024-01-16T01:46:08;11.00;;;4.30;;
72286;SDS011;60221;45.696;16.076;2024-01-16T01:48:37;14.20;;;4.60;;
72286;SDS011;60221;45.696;16.076;2024-01-16T01:51:04;11.60;;;4.30;;
72286;SDS011;60221;45.696;16.076;2024-01-16T01:53:31;11.60;;;5.00;;
72286;SDS011;60221;45.696;16.076;2024-01-16T01:56:01;12.00;;;4.20;;
72286;SDS011;60221;45.696;16.076;2024-01-16T01:58:29;12.70;;;4.90;;
72286;SDS011;60221;45.696;16.076;2024-01-16T02:00:56;12.20;;;4.70;;
72286;SDS011;60221;45.696;16.076;2024-01-16T02:03:23;12.60;;;5.30;;
72286;SDS011;60221;45.696;16.076;2024-01-16T02:05:52;12.40;;;4.70;;
72286;SDS011;60221;45.696;16.076;2024-01-16T02:08:20;12.90;;;5.40;;
72286;SDS011;60221;45.696;16.076;2024-01-16T02:10:47;12.10;;;5.00;;
72286;SDS011;60221;45.696;16.076;2024-01-16T02:13:15;11.60;;;4.00;;
72286;SDS011;60221;45.696;16.076;2024-01-16T02:15:46;12.20;;;4.60;;
72286;SDS011;60221;45.696;16.076;2024-01-16T02:18:13;11.20;;;4.70;;
72286;SDS011;60221;45.696;16.076;2024-01-16T02:20:40;11.10;;;4.00;;
72286;SDS011;60221;45.696;16.076;2024-01-16T02:23:07;12.20;;;4.50;;
72286;SDS011;60221;45.696;16.076;2024-01-16T02:25:36;12.60;;;5.00;;
72286;SDS011;60221;45.696;16.076;2024-01-16T02:28:03;10.10;;;3.90;;
72286;SDS011;60221;45.696;16.076;2024-01-16T02:30:30;10.90;;;4.20;;
72286;SDS011;60221;45.696;16.076;2024-01-16T02:32:57;10.80;;;4.30;;
72286;SDS011;60221;45.696;16.076;2024-01-16T02:35:24;11.00;;;4.70;;
72286;SDS011;60221;45.696;16.076;2024-01-16T02:37:51;15.20;;;4.70;;
72286;SDS011;60221;45.696;16.076;2024-01-16T02:40:18;11.60;;;4.60;;
72286;SDS011;60221;45.696;16.076;2024-01-16T02:42:44;11.30;;;5.00;;
72286;SDS011;60221;45.696;16.076;2024-01-16T02:45:11;11.10;;;4.30;;
72286;SDS011;60221;45.696;16.076;2024-01-16T02:47:38;12.50;;;4.70;;
72286;SDS011;60221;45.696;16.076;2024-01-16T02:50:05;15.10;;;5.10;;
72286;SDS011;60221;45.696;16.076;2024-01-16T02:52:32;11.20;;;4.00;;
72286;SDS011;60221;45.696;16.076;2024-01-16T02:54:59;13.80;;;4.70;;
72286;SDS011;60221;45.696;16.076;2024-01-16T02:57:26;14.60;;;5.50;;
72286;SDS011;60221;45.696;16.076;2024-01-16T02:59:53;16.40;;;5.00;;
72286;SDS011;60221;45.696;16.076;2024-01-16T03:02:19;13.50;;;4.60;;
72286;SDS011;60221;45.696;16.076;2024-01-16T03:04:46;14.30;;;6.50;;
72286;SDS011;60221;45.696;16.076;2024-01-16T03:07:13;9.80;;;4.40;;
72286;SDS011;60221;45.696;16.076;2024-01-16T03:09:40;11.60;;;4.10;;
72286;SDS011;60221;45.696;16.076;2024-01-16T03:12:07;10.50;;;4.90;;
72286;SDS011;60221;45.696;16.076;2024-01-16T03:14:34;12.20;;;4.20;;
72286;SDS011;60221;45.696;16.076;2024-01-16T03:17:03;11.50;;;4.00;;
72286;SDS011;60221;45.696;16.076;2024-01-16T03:19:30;11.00;;;4.00;;
72286;SDS011;60221;45.696;16.076;2024-01-16T03:21:56;9.50;;;3.40;;
72286;SDS011;60221;45.696;16.076;2024-01-16T03:24:24;8.70;;;3.20;;
72286;SDS011;60221;45.696;16.076;2024-01-16T03:26:50;11.20;;;4.00;;
72286;SDS011;60221;45.696;16.076;2024-01-16T03:29:17;10.60;;;4.00;;
72286;SDS011;60221;45.696;16.076;2024-01-16T03:31:44;11.30;;;3.70;;
72286;SDS011;60221;45.696;16.076;2024-01-16T03:34:11;11.80;;;4.30;;
72286;SDS011;60221;45.696;16.076;2024-01-16T03:36:37;10.20;;;4.30;;
72286;SDS011;60221;45.696;16.076;2024-01-16T03:39:04;13.30;;;4.90;;
72286;SDS011;60221;45.696;16.076;2024-01-16T03:41:32;12.10;;;4.60;;
72286;SDS011;60221;45.696;16.076;2024-01-16T03:43:59;9.30;;;3.80;;
72286;SDS011;60221;45.696;16.076;2024-01-16T03:46:25;11.10;;;4.10;;
72286;SDS011;60221;45.696;16.076;2024-01-16T03:48:52;12.00;;;4.70;;
72286;SDS011;60221;45.696;16.076;2024-01-16T03:51:19;9.90;;;4.20;;
72286;SDS011;60221;45.696;16.076;2024-01-16T03:53:46;11.00;;;3.80;;
72286;SDS011;60221;45.696;16.076;2024-01-16T03:56:13;9.60;;;3.70;;
72286;SDS011;60221;45.696;16.076;2024-01-16T03:58:40;9.70;;;3.50;;
72286;SDS011;60221;45.696;16.076;2024-01-16T04:01:08;11.40;;;4.10;;
72286;SDS011;60221;45.696;16.076;2024-01-16T04:03:35;11.20;;;3.90;;
72286;SDS011;60221;45.696;16.076;2024-01-16T04:06:02;10.60;;;3.80;;
72286;SDS011;60221;45.696;16.076;2024-01-16T04:08:29;10.90;;;4.20;;
72286;SDS011;60221;45.696;16.076;2024-01-16T04:10:56;11.40;;;4.40;;
72286;SDS011;60221;45.696;16.076;2024-01-16T04:13:23;10.50;;;3.60;;
72286;SDS011;60221;45.696;16.076;2024-01-16T04:15:49;9.80;;;3.80;;
72286;SDS011;60221;45.696;16.076;2024-01-16T04:18:16;11.60;;;3.70;;
72286;SDS011;60221;45.696;16.076;2024-01-16T04:20:44;10.00;;;3.80;;
72286;SDS011;60221;45.696;16.076;2024-01-16T04:23:10;10.50;;;4.20;;
72286;SDS011;60221;45.696;16.076;2024-01-16T04:25:38;9.60;;;3.40;;
72286;SDS011;60221;45.696;16.076;2024-01-16T04:28:06;11.00;;;4.20;;
72286;SDS011;60221;45.696;16.076;2024-01-16T04:30:33;9.20;;;3.50;;
72286;SDS011;60221;45.696;16.076;2024-01-16T04:33:00;10.40;;;4.20;;
72286;SDS011;60221;45.696;16.076;2024-01-16T04:35:27;10.70;;;4.10;;
72286;SDS011;60221;45.696;16.076;2024-01-16T04:37:54;10.90;;;4.80;;
72286;SDS011;60221;45.696;16.076;2024-01-16T04:40:21;11.00;;;4.40;;
72286;SDS011;60221;45.696;16.076;2024-01-16T04:42:48;12.70;;;4.70;;
72286;SDS011;60221;45.696;16.076;2024-01-16T04:45:15;9.90;;;4.20;;
72286;SDS011;60221;45.696;16.076;2024-01-16T04:47:42;11.20;;;5.00;;
72286;SDS011;60221;45.696;16.076;2024-01-16T04:50:09;13.00;;;5.20;;
72286;SDS011;60221;45.696;16.076;2024-01-16T04:52:36;13.40;;;5.30;;
72286;SDS011;60221;45.696;16.076;2024-01-16T04:55:03;12.30;;;5.00;;
72286;SDS011;60221;45.696;16.076;2024-01-16T04:57:30;12.30;;;5.40;;
72286;SDS011;60221;45.696;16.076;2024-01-16T04:59:56;13.90;;;6.50;;
72286;SDS011;60221;45.696;16.076;2024-01-16T05:02:23;15.40;;;5.70;;
72286;SDS011;60221;45.696;16.076;2024-01-16T05:04:50;13.60;;;6.50;;
72286;SDS011;60221;45.696;16.076;2024-01-16T05:07:18;11.50;;;5.70;;
72286;SDS011;60221;45.696;16.076;2024-01-16T05:09:47;11.90;;;5.20;;
72286;SDS011;60221;45.696;16.076;2024-01-16T05:12:14;12.70;;;5.50;;
72286;SDS011;60221;45.696;16.076;2024-01-16T05:14:41;10.60;;;4.60;;
72286;SDS011;60221;45.696;16.076;2024-01-16T05:17:07;13.00;;;5.70;;
72286;SDS011;60221;45.696;16.076;2024-01-16T05:19:35;11.80;;;4.70;;
72286;SDS011;60221;45.696;16.076;2024-01-16T05:22:01;14.00;;;5.10;;
72286;SDS011;60221;45.696;16.076;2024-01-16T05:24:29;12.30;;;5.20;;
72286;SDS011;60221;45.696;16.076;2024-01-16T05:26:56;12.30;;;5.20;;
72286;SDS011;60221;45.696;16.076;2024-01-16T05:29:23;12.00;;;5.00;;
72286;SDS011;60221;45.696;16.076;2024-01-16T05:31:50;10.20;;;4.50;;
72286;SDS011;60221;45.696;16.076;2024-01-16T05:34:17;9.90;;;4.30;;
72286;SDS011;60221;45.696;16.076;2024-01-16T05:36:44;12.80;;;5.20;;
72286;SDS011;60221;45.696;16.076;2024-01-16T05:39:11;10.90;;;5.00;;
72286;SDS011;60221;45.696;16.076;2024-01-16T05:41:38;10.60;;;4.70;;
72286;SDS011;60221;45.696;16.076;2024-01-16T05:44:05;12.30;;;5.10;;
72286;SDS011;60221;45.696;16.076;2024-01-16T05:46:32;11.60;;;4.30;;
72286;SDS011;60221;45.696;16.076;2024-01-16T05:48:58;12.50;;;4.30;;
72286;SDS011;60221;45.696;16.076;2024-01-16T05:51:27;11.90;;;5.50;;
72286;SDS011;60221;45.696;16.076;2024-01-16T05:53:54;12.70;;;4.70;;
72286;SDS011;60221;45.696;16.076;2024-01-16T05:56:21;10.70;;;4.80;;
72286;SDS011;60221;45.696;16.076;2024-01-16T05:58:48;14.20;;;4.80;;
72286;SDS011;60221;45.696;16.076;2024-01-16T06:01:15;22.00;;;5.80;;
72286;SDS011;60221;45.696;16.076;2024-01-16T06:03:42;12.40;;;4.50;;
72286;SDS011;60221;45.696;16.076;2024-01-16T06:06:12;12.00;;;4.50;;
72286;SDS011;60221;45.696;16.076;2024-01-16T06:08:39;11.40;;;4.50;;
72286;SDS011;60221;45.696;16.076;2024-01-16T06:11:06;11.60;;;5.10;;
72286;SDS011;60221;45.696;16.076;2024-01-16T06:13:32;12.50;;;5.40;;
72286;SDS011;60221;45.696;16.076;2024-01-16T06:15:59;12.00;;;5.10;;
72286;SDS011;60221;45.696;16.076;2024-01-16T06:18:26;10.80;;;5.10;;
72286;SDS011;60221;45.696;16.076;2024-01-16T06:20:53;14.40;;;5.70;;
72286;SDS011;60221;45.696;16.076;2024-01-16T06:23:20;13.70;;;6.30;;
72286;SDS011;60221;45.696;16.076;2024-01-16T06:25:47;12.20;;;5.40;;
72286;SDS011;60221;45.696;16.076;2024-01-16T06:28:14;15.80;;;5.10;;
72286;SDS011;60221;45.696;16.076;2024-01-16T06:30:41;11.20;;;4.50;;
72286;SDS011;60221;45.696;16.076;2024-01-16T06:33:07;11.70;;;5.30;;
72286;SDS011;60221;45.696;16.076;2024-01-16T06:35:35;14.00;;;5.50;;
72286;SDS011;60221;45.696;16.076;2024-01-16T06:38:02;12.10;;;5.20;;
72286;SDS011;60221;45.696;16.076;2024-01-16T06:40:28;15.30;;;5.70;;
72286;SDS011;60221;45.696;16.076;2024-01-16T06:42:55;13.10;;;5.30;;
72286;SDS011;60221;45.696;16.076;2024-01-16T06:45:22;15.00;;;5.40;;
72286;SDS011;60221;45.696;16.076;2024-01-16T06:47:49;22.10;;;10.10;;
72286;SDS011;60221;45.696;16.076;2024-01-16T06:50:17;24.10;;;11.70;;
72286;SDS011;60221;45.696;16.076;2024-01-16T06:52:44;22.50;;;11.10;;
72286;SDS011;60221;45.696;16.076;2024-01-16T06:55:11;20.20;;;10.00;;
72286;SDS011;60221;45.696;16.076;2024-01-16T06:57:38;19.40;;;9.20;;
72286;SDS011;60221;45.696;16.076;2024-01-16T07:00:05;20.90;;;9.40;;
72286;SDS011;60221;45.696;16.076;2024-01-16T07:02:34;18.70;;;8.10;;
72286;SDS011;60221;45.696;16.076;2024-01-16T07:05:00;17.00;;;8.20;;
72286;SDS011;60221;45.696;16.076;2024-01-16T07:07:27;20.40;;;8.00;;
72286;SDS011;60221;45.696;16.076;2024-01-16T07:09:54;19.00;;;7.90;;
72286;SDS011;60221;45.696;16.076;2024-01-16T07:12:21;17.50;;;7.10;;
72286;SDS011;60221;45.696;16.076;2024-01-16T07:14:48;19.50;;;8.40;;
72286;SDS011;60221;45.696;16.076;2024-01-16T07:17:15;17.70;;;6.80;;
72286;SDS011;60221;45.696;16.076;2024-01-16T07:19:42;29.20;;;9.70;;
72286;SDS011;60221;45.696;16.076;2024-01-16T07:22:09;54.40;;;16.20;;
72286;SDS011;60221;45.696;16.076;2024-01-16T07:24:36;48.80;;;16.70;;
72286;SDS011;60221;45.696;16.076;2024-01-16T07:27:02;31.30;;;12.40;;
72286;SDS011;60221;45.696;16.076;2024-01-16T07:29:29;37.80;;;13.90;;
72286;SDS011;60221;45.696;16.076;2024-01-16T07:31:56;40.20;;;17.60;;
72286;SDS011;60221;45.696;16.076;2024-01-16T07:34:23;35.20;;;15.80;;
72286;SDS011;60221;45.696;16.076;2024-01-16T07:36:50;41.20;;;18.30;;
72286;SDS011;60221;45.696;16.076;2024-01-16T07:39:17;31.20;;;15.10;;
72286;SDS011;60221;45.696;16.076;2024-01-16T07:41:43;35.50;;;16.80;;
72286;SDS011;60221;45.696;16.076;2024-01-16T07:44:10;42.40;;;20.50;;
72286;SDS011;60221;45.696;16.076;2024-01-16T07:46:37;34.60;;;17.70;;
72286;SDS011;60221;45.696;16.076;2024-01-16T07:49:04;37.90;;;18.00;;
72286;SDS011;60221;45.696;16.076;2024-01-16T07:51:32;39.50;;;19.10;;
72286;SDS011;60221;45.696;16.076;2024-01-16T07:54:06;37.10;;;17.80;;
72286;SDS011;60221;45.696;16.076;2024-01-16T07:56:33;41.70;;;21.50;;
72286;SDS011;60221;45.696;16.076;2024-01-16T07:59:01;39.60;;;18.20;;
72286;SDS011;60221;45.696;16.076;2024-01-16T08:01:28;42.70;;;21.00;;
72286;SDS011;60221;45.696;16.076;2024-01-16T08:03:57;47.60;;;22.00;;
72286;SDS011;60221;45.696;16.076;2024-01-16T08:06:26;43.10;;;21.30;;
72286;SDS011;60221;45.696;16.076;2024-01-16T08:08:53;37.70;;;17.50;;
72286;SDS011;60221;45.696;16.076;2024-01-16T08:11:20;34.10;;;17.40;;
72286;SDS011;60221;45.696;16.076;2024-01-16T08:13:47;36.40;;;19.20;;
72286;SDS011;60221;45.696;16.076;2024-01-16T08:16:13;40.20;;;19.00;;
72286;SDS011;60221;45.696;16.076;2024-01-16T08:18:40;31.80;;;16.10;;
72286;SDS011;60221;45.696;16.076;2024-01-16T08:21:07;33.90;;;16.50;;
72286;SDS011;60221;45.696;16.076;2024-01-16T08:23:34;34.80;;;15.70;;
72286;SDS011;60221;45.696;16.076;2024-01-16T08:26:01;34.10;;;15.90;;
72286;SDS011;60221;45.696;16.076;2024-01-16T08:28:28;28.90;;;11.80;;
72286;SDS011;60221;45.696;16.076;2024-01-16T08:30:55;24.70;;;11.40;;
72286;SDS011;60221;45.696;16.076;2024-01-16T08:33:22;31.90;;;14.50;;
72286;SDS011;60221;45.696;16.076;2024-01-16T08:36:02;26.20;;;14.20;;
72286;SDS011;60221;45.696;16.076;2024-01-16T08:38:30;30.00;;;15.80;;
72286;SDS011;60221;45.696;16.076;2024-01-16T08:40:57;24.10;;;12.70;;
72286;SDS011;60221;45.696;16.076;2024-01-16T08:43:24;23.40;;;12.30;;
72286;SDS011;60221;45.696;16.076;2024-01-16T08:45:52;25.10;;;12.30;;
72286;SDS011;60221;45.696;16.076;2024-01-16T08:48:18;25.40;;;11.80;;
72286;SDS011;60221;45.696;16.076;2024-01-16T08:50:45;16.10;;;8.70;;
72286;SDS011;60221;45.696;16.076;2024-01-16T08:53:12;26.60;;;11.00;;
72286;SDS011;60221;45.696;16.076;2024-01-16T08:55:39;20.00;;;9.20;;
72286;SDS011;60221;45.696;16.076;2024-01-16T08:58:06;24.60;;;10.30;;
72286;SDS011;60221;45.696;16.076;2024-01-16T09:00:33;27.10;;;12.40;;
72286;SDS011;60221;45.696;16.076;2024-01-16T09:03:00;47.60;;;19.00;;
72286;SDS011;60221;45.696;16.076;2024-01-16T09:05:30;31.40;;;13.20;;
72286;SDS011;60221;45.696;16.076;2024-01-16T09:07:57;24.70;;;10.40;;
72286;SDS011;60221;45.696;16.076;2024-01-16T09:10:24;28.00;;;12.20;;
72286;SDS011;60221;45.696;16.076;2024-01-16T09:12:51;36.50;;;14.90;;
72286;SDS011;60221;45.696;16.076;2024-01-16T09:15:18;31.00;;;12.70;;
72286;SDS011;60221;45.696;16.076;2024-01-16T09:17:45;24.70;;;10.50;;
72286;SDS011;60221;45.696;16.076;2024-01-16T09:20:12;24.80;;;9.80;;
72286;SDS011;60221;45.696;16.076;2024-01-16T09:22:39;26.80;;;11.40;;
72286;SDS011;60221;45.696;16.076;2024-01-16T09:25:06;26.50;;;10.80;;
72286;SDS011;60221;45.696;16.076;2024-01-16T09:27:33;28.40;;;10.40;;
72286;SDS011;60221;45.696;16.076;2024-01-16T09:30:00;25.30;;;10.10;;
72286;SDS011;60221;45.696;16.076;2024-01-16T09:32:27;24.70;;;10.90;;
72286;SDS011;60221;45.696;16.076;2024-01-16T09:34:54;23.50;;;10.40;;
72286;SDS011;60221;45.696;16.076;2024-01-16T09:37:21;26.40;;;11.30;;
72286;SDS011;60221;45.696;16.076;2024-01-16T09:39:48;25.10;;;10.90;;
72286;SDS011;60221;45.696;16.076;2024-01-16T09:42:15;32.20;;;15.00;;
72286;SDS011;60221;45.696;16.076;2024-01-16T09:44:43;31.50;;;14.20;;
72286;SDS011;60221;45.696;16.076;2024-01-16T09:47:09;29.90;;;11.80;;
72286;SDS011;60221;45.696;16.076;2024-01-16T09:49:37;23.50;;;10.00;;
72286;SDS011;60221;45.696;16.076;2024-01-16T09:52:06;28.70;;;13.90;;
72286;SDS011;60221;45.696;16.076;2024-01-16T09:54:33;26.60;;;12.10;;
72286;SDS011;60221;45.696;16.076;2024-01-16T09:56:59;23.30;;;9.90;;
72286;SDS011;60221;45.696;16.076;2024-01-16T09:59:29;21.20;;;9.70;;
72286;SDS011;60221;45.696;16.076;2024-01-16T10:01:56;22.80;;;9.60;;
72286;SDS011;60221;45.696;16.076;2024-01-16T10:04:24;23.00;;;8.90;;
72286;SDS011;60221;45.696;16.076;2024-01-16T10:06:51;20.70;;;8.30;;
72286;SDS011;60221;45.696;16.076;2024-01-16T10:09:20;20.00;;;8.20;;
72286;SDS011;60221;45.696;16.076;2024-01-16T10:11:48;19.30;;;6.90;;
72286;SDS011;60221;45.696;16.076;2024-01-16T10:14:15;13.70;;;5.10;;
72286;SDS011;60221;45.696;16.076;2024-01-16T10:17:00;21.00;;;7.40;;
72286;SDS011;60221;45.696;16.076;2024-01-16T10:19:33;19.40;;;6.20;;
72286;SDS011;60221;45.696;16.076;2024-01-16T10:22:14;15.50;;;5.20;;
72286;SDS011;60221;45.696;16.076;2024-01-16T10:27:29;17.20;;;5.60;;
72286;SDS011;60221;45.696;16.076;2024-01-16T10:29:58;23.10;;;4.80;;
72286;SDS011;60221;45.696;16.076;2024-01-16T10:32:33;17.50;;;4.60;;
72286;SDS011;60221;45.696;16.076;2024-01-16T10:35:07;17.10;;;4.40;;
72286;SDS011;60221;45.696;16.076;2024-01-16T10:37:42;11.30;;;3.50;;
72286;SDS011;60221;45.696;16.076;2024-01-16T10:42:43;18.20;;;5.90;;
72286;SDS011;60221;45.696;16.076;2024-01-16T10:45:16;12.20;;;3.60;;
72286;SDS011;60221;45.696;16.076;2024-01-16T10:47:44;15.50;;;3.80;;
72286;SDS011;60221;45.696;16.076;2024-01-16T10:50:11;13.00;;;4.00;;
72286;SDS011;60221;45.696;16.076;2024-01-16T10:52:44;22.10;;;5.40;;
72286;SDS011;60221;45.696;16.076;2024-01-16T10:55:13;12.40;;;3.10;;
72286;SDS011;60221;45.696;16.076;2024-01-16T10:57:43;15.70;;;3.90;;
72286;SDS011;60221;45.696;16.076;2024-01-16T11:00:10;12.30;;;3.80;;
72286;SDS011;60221;45.696;16.076;2024-01-16T11:02:44;9.10;;;3.50;;
72286;SDS011;60221;45.696;16.076;2024-01-16T11:05:17;23.80;;;9.70;;
72286;SDS011;60221;45.696;16.076;2024-01-16T11:07:45;31.00;;;12.30;;
72286;SDS011;60221;45.696;16.076;2024-01-16T11:10:14;29.40;;;12.70;;
72286;SDS011;60221;45.696;16.076;2024-01-16T11:12:42;21.70;;;9.90;;
72286;SDS011;60221;45.696;16.076;2024-01-16T11:15:11;15.60;;;6.20;;
72286;SDS011;60221;45.696;16.076;2024-01-16T11:17:39;27.90;;;11.10;;
72286;SDS011;60221;45.696;16.076;2024-01-16T11:20:08;12.80;;;4.90;;
72286;SDS011;60221;45.696;16.076;2024-01-16T11:22:56;15.80;;;5.40;;
72286;SDS011;60221;45.696;16.076;2024-01-16T11:25:32;26.30;;;11.00;;
72286;SDS011;60221;45.696;16.076;2024-01-16T11:28:09;12.20;;;5.20;;
72286;SDS011;60221;45.696;16.076;2024-01-16T11:30:37;18.00;;;5.40;;
72286;SDS011;60221;45.696;16.076;2024-01-16T11:33:04;14.20;;;5.30;;
72286;SDS011;60221;45.696;16.076;2024-01-16T11:35:34;14.50;;;5.10;;
72286;SDS011;60221;45.696;16.076;2024-01-16T11:38:04;18.50;;;8.00;;
72286;SDS011;60221;45.696;16.076;2024-01-16T11:40:32;11.40;;;4.60;;
72286;SDS011;60221;45.696;16.076;2024-01-16T11:42:59;10.90;;;3.70;;
72286;SDS011;60221;45.696;16.076;2024-01-16T11:48:13;10.40;;;3.70;;
72286;SDS011;60221;45.696;16.076;2024-01-16T11:50:40;15.00;;;4.50;;
72286;SDS011;60221;45.696;16.076;2024-01-16T11:53:08;12.70;;;4.30;;
72286;SDS011;60221;45.696;16.076;2024-01-16T11:55:39;15.20;;;4.70;;
72286;SDS011;60221;45.696;16.076;2024-01-16T12:00:44;9.60;;;3.30;;
72286;SDS011;60221;45.696;16.076;2024-01-16T12:03:14;10.80;;;3.70;;
72286;SDS011;60221;45.696;16.076;2024-01-16T12:06:00;9.80;;;3.00;;
72286;SDS011;60221;45.696;16.076;2024-01-16T12:08:30;10.60;;;3.50;;
72286;SDS011;60221;45.696;16.076;2024-01-16T12:10:56;13.60;;;3.80;;
72286;SDS011;60221;45.696;16.076;2024-01-16T12:13:24;13.50;;;3.70;;
72286;SDS011;60221;45.696;16.076;2024-01-16T12:16:00;11.40;;;3.50;;
72286;SDS011;60221;45.696;16.076;2024-01-16T12:18:28;11.10;;;3.20;;
72286;SDS011;60221;45.696;16.076;2024-01-16T12:21:08;10.30;;;2.60;;
72286;SDS011;60221;45.696;16.076;2024-01-16T12:23:36;12.00;;;3.20;;
72286;SDS011;60221;45.696;16.076;2024-01-16T12:26:06;10.00;;;3.10;;
72286;SDS011;60221;45.696;16.076;2024-01-16T12:28:32;11.00;;;4.50;;
72286;SDS011;60221;45.696;16.076;2024-01-16T12:31:00;16.00;;;3.50;;
72286;SDS011;60221;45.696;16.076;2024-01-16T12:33:28;12.20;;;2.90;;
72286;SDS011;60221;45.696;16.076;2024-01-16T12:36:02;9.60;;;3.10;;
72286;SDS011;60221;45.696;16.076;2024-01-16T12:38:31;18.30;;;6.50;;
72286;SDS011;60221;45.696;16.076;2024-01-16T12:40:58;10.70;;;3.80;;
72286;SDS011;60221;45.696;16.076;2024-01-16T12:43:25;8.30;;;2.90;;
72286;SDS011;60221;45.696;16.076;2024-01-16T12:45:56;19.70;;;7.50;;
72286;SDS011;60221;45.696;16.076;2024-01-16T12:48:24;13.30;;;4.80;;
72286;SDS011;60221;45.696;16.076;2024-01-16T12:50:58;24.80;;;3.90;;
72286;SDS011;60221;45.696;16.076;2024-01-16T12:53:26;11.20;;;4.30;;
72286;SDS011;60221;45.696;16.076;2024-01-16T12:55:59;9.50;;;3.70;;
72286;SDS011;60221;45.696;16.076;2024-01-16T12:58:31;10.90;;;3.50;;
72286;SDS011;60221;45.696;16.076;2024-01-16T13:01:04;12.90;;;3.90;;
72286;SDS011;60221;45.696;16.076;2024-01-16T13:03:56;9.80;;;3.20;;
72286;SDS011;60221;45.696;16.076;2024-01-16T13:06:23;8.10;;;2.40;;
72286;SDS011;60221;45.696;16.076;2024-01-16T13:08:50;11.30;;;3.80;;
72286;SDS011;60221;45.696;16.076;2024-01-16T13:11:17;13.30;;;4.20;;
72286;SDS011;60221;45.696;16.076;2024-01-16T13:14:04;13.30;;;3.00;;
72286;SDS011;60221;45.696;16.076;2024-01-16T13:16:31;13.30;;;3.80;;
72286;SDS011;60221;45.696;16.076;2024-01-16T13:19:00;11.00;;;3.90;;
72286;SDS011;60221;45.696;16.076;2024-01-16T13:21:28;11.30;;;4.10;;
72286;SDS011;60221;45.696;16.076;2024-01-16T13:23:55;12.20;;;4.00;;
72286;SDS011;60221;45.696;16.076;2024-01-16T13:26:22;10.10;;;3.20;;
72286;SDS011;60221;45.696;16.076;2024-01-16T13:28:49;14.70;;;5.00;;
72286;SDS011;60221;45.696;16.076;2024-01-16T13:31:17;10.50;;;3.60;;
72286;SDS011;60221;45.696;16.076;2024-01-16T13:33:44;11.80;;;3.60;;
72286;SDS011;60221;45.696;16.076;2024-01-16T13:36:11;7.60;;;2.10;;
72286;SDS011;60221;45.696;16.076;2024-01-16T13:38:38;8.40;;;1.90;;
72286;SDS011;60221;45.696;16.076;2024-01-16T13:41:05;10.60;;;2.80;;
72286;SDS011;60221;45.696;16.076;2024-01-16T13:43:32;13.20;;;4.10;;
72286;SDS011;60221;45.696;16.076;2024-01-16T13:45:59;10.90;;;3.00;;
72286;SDS011;60221;45.696;16.076;2024-01-16T13:48:25;10.40;;;2.60;;
72286;SDS011;60221;45.696;16.076;2024-01-16T13:50:52;9.30;;;2.60;;
72286;SDS011;60221;45.696;16.076;2024-01-16T13:53:20;21.70;;;9.30;;
72286;SDS011;60221;45.696;16.076;2024-01-16T13:55:47;19.20;;;7.60;;
72286;SDS011;60221;45.696;16.076;2024-01-16T13:58:13;19.10;;;7.80;;
72286;SDS011;60221;45.696;16.076;2024-01-16T14:00:40;11.30;;;4.60;;
72286;SDS011;60221;45.696;16.076;2024-01-16T14:03:07;16.80;;;5.70;;
72286;SDS011;60221;45.696;16.076;2024-01-16T14:05:34;11.00;;;3.20;;
72286;SDS011;60221;45.696;16.076;2024-01-16T14:08:03;9.70;;;3.00;;
72286;SDS011;60221;45.696;16.076;2024-01-16T14:10:30;9.50;;;2.60;;
72286;SDS011;60221;45.696;16.076;2024-01-16T14:12:57;10.30;;;3.80;;
72286;SDS011;60221;45.696;16.076;2024-01-16T14:15:24;10.00;;;2.00;;
72286;SDS011;60221;45.696;16.076;2024-01-16T14:17:55;7.40;;;2.10;;
72286;SDS011;60221;45.696;16.076;2024-01-16T14:20:23;9.30;;;3.00;;
72286;SDS011;60221;45.696;16.076;2024-01-16T14:22:54;8.20;;;2.30;;
72286;SDS011;60221;45.696;16.076;2024-01-16T14:25:21;9.10;;;1.90;;
72286;SDS011;60221;45.696;16.076;2024-01-16T14:27:55;8.20;;;2.30;;
72286;SDS011;60221;45.696;16.076;2024-01-16T14:30:22;6.90;;;2.20;;
72286;SDS011;60221;45.696;16.076;2024-01-16T14:32:49;6.70;;;1.40;;
72286;SDS011;60221;45.696;16.076;2024-01-16T14:35:16;6.60;;;1.60;;